sensor_id;sensor_type;location;lat;lon;timestamp;temperature;humidity
38090;DHT22;23904;52.322;10.232;2023-03-30T00:00:19;9.80;99.90
38090;DHT22;23904;52.322;10.232;2023-03-30T00:02:48;9.80;99.90
38090;DHT22;23904;52.322;10.232;2023-03-30T00:05:15;9.70;99.90
38090;DHT22;23904;52.322;10.232;2023-03-30T00:07:43;9.70;99.90
38090;DHT22;23904;52.322;10.232;2023-03-30T00:10:14;9.60;99.90
38090;DHT22;23904;52.322;10.232;2023-03-30T00:12:46;9.60;99.90
38090;DHT22;23904;52.322;10.232;2023-03-30T00:15:16;9.60;99.90
38090;DHT22;23904;52.322;10.232;2023-03-30T00:17:44;9.70;99.90
38090;DHT22;23904;52.322;10.232;2023-03-30T00:20:14;9.80;99.90
38090;DHT22;23904;52.322;10.232;2023-03-30T00:22:42;10.00;99.90
38090;DHT22;23904;52.322;10.232;2023-03-30T00:25:11;10.20;99.90
38090;DHT22;23904;52.322;10.232;2023-03-30T00:27:39;10.40;99.90
38090;DHT22;23904;52.322;10.232;2023-03-30T00:30:07;10.50;99.90
38090;DHT22;23904;52.322;10.232;2023-03-30T00:32:35;10.60;99.90
38090;DHT22;23904;52.322;10.232;2023-03-30T00:35:01;10.60;99.90
38090;DHT22;23904;52.322;10.232;2023-03-30T00:37:28;10.60;99.90
38090;DHT22;23904;52.322;10.232;2023-03-30T00:39:54;10.60;99.90
38090;DHT22;23904;52.322;10.232;2023-03-30T00:42:20;10.60;99.90
38090;DHT22;23904;52.322;10.232;2023-03-30T00:51:03;10.60;99.90
38090;DHT22;23904;52.322;10.232;2023-03-30T00:53:38;10.50;99.90
38090;DHT22;23904;52.322;10.232;2023-03-30T00:56:08;10.50;99.90
38090;DHT22;23904;52.322;10.232;2023-03-30T00:58:36;10.50;99.90
38090;DHT22;23904;52.322;10.232;2023-03-30T01:01:05;10.40;99.90
38090;DHT22;23904;52.322;10.232;2023-03-30T01:03:34;10.40;99.90
38090;DHT22;23904;52.322;10.232;2023-03-30T01:06:04;10.50;99.90
38090;DHT22;23904;52.322;10.232;2023-03-30T01:08:32;10.50;99.90
38090;DHT22;23904;52.322;10.232;2023-03-30T01:11:02;10.50;99.90
38090;DHT22;23904;52.322;10.232;2023-03-30T01:13:32;10.50;99.90
38090;DHT22;23904;52.322;10.232;2023-03-30T01:31:44;10.60;99.90
38090;DHT22;23904;52.322;10.232;2023-03-30T01:34:48;10.50;99.90
38090;DHT22;23904;52.322;10.232;2023-03-30T01:38:07;10.50;99.90
38090;DHT22;23904;52.322;10.232;2023-03-30T01:40:58;10.30;99.90
38090;DHT22;23904;52.322;10.232;2023-03-30T01:43:48;10.20;99.90
38090;DHT22;23904;52.322;10.232;2023-03-30T01:46:22;10.20;99.90
38090;DHT22;23904;52.322;10.232;2023-03-30T01:51:42;10.10;99.90
38090;DHT22;23904;52.322;10.232;2023-03-30T01:54:22;10.20;99.90
38090;DHT22;23904;52.322;10.232;2023-03-30T01:56:59;10.10;99.90
38090;DHT22;23904;52.322;10.232;2023-03-30T02:02:04;10.10;99.90
38090;DHT22;23904;52.322;10.232;2023-03-30T02:04:35;10.10;99.90
38090;DHT22;23904;52.322;10.232;2023-03-30T02:07:10;10.10;99.90
38090;DHT22;23904;52.322;10.232;2023-03-30T02:09:44;10.10;99.90
38090;DHT22;23904;52.322;10.232;2023-03-30T02:12:11;10.20;99.90
38090;DHT22;23904;52.322;10.232;2023-03-30T02:14:38;10.20;99.90
38090;DHT22;23904;52.322;10.232;2023-03-30T02:17:14;10.20;99.90
38090;DHT22;23904;52.322;10.232;2023-03-30T02:19:43;10.30;99.90
38090;DHT22;23904;52.322;10.232;2023-03-30T02:22:14;10.20;99.90
38090;DHT22;23904;52.322;10.232;2023-03-30T02:24:42;10.10;99.90
38090;DHT22;23904;52.322;10.232;2023-03-30T02:27:10;10.00;99.90
38090;DHT22;23904;52.322;10.232;2023-03-30T02:29:39;10.00;99.90
38090;DHT22;23904;52.322;10.232;2023-03-30T02:38:01;9.80;99.90
38090;DHT22;23904;52.322;10.232;2023-03-30T02:41:12;9.80;99.90
38090;DHT22;23904;52.322;10.232;2023-03-30T02:47:35;10.00;99.90
38090;DHT22;23904;52.322;10.232;2023-03-30T02:50:22;10.10;99.90
38090;DHT22;23904;52.322;10.232;2023-03-30T02:53:30;10.20;99.90
38090;DHT22;23904;52.322;10.232;2023-03-30T02:56:09;10.20;99.90
38090;DHT22;23904;52.322;10.232;2023-03-30T02:58:55;10.20;99.90
38090;DHT22;23904;52.322;10.232;2023-03-30T03:01:38;10.20;99.90
38090;DHT22;23904;52.322;10.232;2023-03-30T03:04:08;10.30;99.90
38090;DHT22;23904;52.322;10.232;2023-03-30T03:06:34;10.40;99.90
38090;DHT22;23904;52.322;10.232;2023-03-30T03:09:02;10.40;99.90
38090;DHT22;23904;52.322;10.232;2023-03-30T03:11:28;10.40;99.90
38090;DHT22;23904;52.322;10.232;2023-03-30T03:13:54;10.50;99.90
38090;DHT22;23904;52.322;10.232;2023-03-30T03:16:22;10.60;99.90
38090;DHT22;23904;52.322;10.232;2023-03-30T03:18:47;10.60;99.90
38090;DHT22;23904;52.322;10.232;2023-03-30T03:21:14;10.70;99.90
38090;DHT22;23904;52.322;10.232;2023-03-30T03:23:40;10.70;99.90
38090;DHT22;23904;52.322;10.232;2023-03-30T03:26:07;10.70;99.90
38090;DHT22;23904;52.322;10.232;2023-03-30T03:28:33;10.70;99.90
38090;DHT22;23904;52.322;10.232;2023-03-30T03:31:00;10.70;99.90
38090;DHT22;23904;52.322;10.232;2023-03-30T03:33:27;10.90;99.90
38090;DHT22;23904;52.322;10.232;2023-03-30T03:35:53;10.90;99.90
38090;DHT22;23904;52.322;10.232;2023-03-30T03:38:20;10.90;99.90
38090;DHT22;23904;52.322;10.232;2023-03-30T03:40:57;11.00;99.90
38090;DHT22;23904;52.322;10.232;2023-03-30T03:43:24;11.10;99.90
38090;DHT22;23904;52.322;10.232;2023-03-30T03:45:51;11.10;99.90
38090;DHT22;23904;52.322;10.232;2023-03-30T03:48:18;11.10;99.90
38090;DHT22;23904;52.322;10.232;2023-03-30T03:50:50;11.20;99.90
38090;DHT22;23904;52.322;10.232;2023-03-30T03:53:18;11.20;99.90
38090;DHT22;23904;52.322;10.232;2023-03-30T03:55:44;11.20;99.90
38090;DHT22;23904;52.322;10.232;2023-03-30T03:58:11;11.30;99.90
38090;DHT22;23904;52.322;10.232;2023-03-30T04:00:38;11.30;99.90
38090;DHT22;23904;52.322;10.232;2023-03-30T04:03:04;11.20;99.90
38090;DHT22;23904;52.322;10.232;2023-03-30T04:05:30;11.30;99.90
38090;DHT22;23904;52.322;10.232;2023-03-30T04:07:56;11.40;99.90
38090;DHT22;23904;52.322;10.232;2023-03-30T04:10:22;11.40;99.90
38090;DHT22;23904;52.322;10.232;2023-03-30T04:12:48;11.50;99.90
38090;DHT22;23904;52.322;10.232;2023-03-30T04:15:13;11.60;99.90
38090;DHT22;23904;52.322;10.232;2023-03-30T04:17:39;11.70;99.90
38090;DHT22;23904;52.322;10.232;2023-03-30T04:20:06;11.80;99.90
38090;DHT22;23904;52.322;10.232;2023-03-30T04:22:37;11.80;99.90
38090;DHT22;23904;52.322;10.232;2023-03-30T04:25:07;11.80;99.90
38090;DHT22;23904;52.322;10.232;2023-03-30T04:27:38;11.80;99.90
38090;DHT22;23904;52.322;10.232;2023-03-30T04:30:07;11.80;99.90
38090;DHT22;23904;52.322;10.232;2023-03-30T04:32:34;11.90;99.90
38090;DHT22;23904;52.322;10.232;2023-03-30T04:35:04;11.90;99.90
38090;DHT22;23904;52.322;10.232;2023-03-30T04:37:31;11.90;99.90
38090;DHT22;23904;52.322;10.232;2023-03-30T04:40:00;11.90;99.90
38090;DHT22;23904;52.322;10.232;2023-03-30T04:42:32;12.00;99.90
38090;DHT22;23904;52.322;10.232;2023-03-30T04:45:06;12.00;99.90
38090;DHT22;23904;52.322;10.232;2023-03-30T04:47:33;11.90;99.90
38090;DHT22;23904;52.322;10.232;2023-03-30T04:49:59;11.90;99.90
38090;DHT22;23904;52.322;10.232;2023-03-30T04:52:26;11.90;99.90
38090;DHT22;23904;52.322;10.232;2023-03-30T04:54:52;11.90;99.90
38090;DHT22;23904;52.322;10.232;2023-03-30T04:57:17;11.90;99.90
38090;DHT22;23904;52.322;10.232;2023-03-30T04:59:43;11.90;99.90
38090;DHT22;23904;52.322;10.232;2023-03-30T05:02:10;11.90;99.90
38090;DHT22;23904;52.322;10.232;2023-03-30T05:04:37;11.90;99.90
38090;DHT22;23904;52.322;10.232;2023-03-30T05:07:04;11.80;99.90
38090;DHT22;23904;52.322;10.232;2023-03-30T05:09:30;11.70;99.90
38090;DHT22;23904;52.322;10.232;2023-03-30T05:11:56;11.70;99.90
38090;DHT22;23904;52.322;10.232;2023-03-30T05:14:21;11.70;99.90
38090;DHT22;23904;52.322;10.232;2023-03-30T05:16:47;11.70;99.90
38090;DHT22;23904;52.322;10.232;2023-03-30T05:19:12;11.70;99.90
38090;DHT22;23904;52.322;10.232;2023-03-30T05:21:38;11.70;99.90
38090;DHT22;23904;52.322;10.232;2023-03-30T05:24:04;11.60;99.90
38090;DHT22;23904;52.322;10.232;2023-03-30T05:26:30;11.70;99.90
38090;DHT22;23904;52.322;10.232;2023-03-30T05:28:56;11.80;99.90
38090;DHT22;23904;52.322;10.232;2023-03-30T05:31:22;11.80;99.90
38090;DHT22;23904;52.322;10.232;2023-03-30T05:33:47;11.80;99.90
38090;DHT22;23904;52.322;10.232;2023-03-30T05:36:13;11.90;99.90
38090;DHT22;23904;52.322;10.232;2023-03-30T05:38:39;11.90;99.90
38090;DHT22;23904;52.322;10.232;2023-03-30T05:41:05;12.00;99.90
38090;DHT22;23904;52.322;10.232;2023-03-30T05:43:31;12.00;99.90
38090;DHT22;23904;52.322;10.232;2023-03-30T05:45:58;12.00;99.90
38090;DHT22;23904;52.322;10.232;2023-03-30T05:48:23;12.00;99.90
38090;DHT22;23904;52.322;10.232;2023-03-30T05:50:49;12.20;99.90
38090;DHT22;23904;52.322;10.232;2023-03-30T05:53:15;12.20;99.90
38090;DHT22;23904;52.322;10.232;2023-03-30T05:55:44;12.10;99.90
38090;DHT22;23904;52.322;10.232;2023-03-30T05:58:14;12.20;99.90
38090;DHT22;23904;52.322;10.232;2023-03-30T06:00:41;12.20;99.90
38090;DHT22;23904;52.322;10.232;2023-03-30T06:03:08;12.20;99.90
38090;DHT22;23904;52.322;10.232;2023-03-30T06:05:36;12.10;99.90
38090;DHT22;23904;52.322;10.232;2023-03-30T06:08:04;12.10;99.90
38090;DHT22;23904;52.322;10.232;2023-03-30T06:10:32;12.20;99.90
38090;DHT22;23904;52.322;10.232;2023-03-30T06:12:58;12.20;99.90
38090;DHT22;23904;52.322;10.232;2023-03-30T06:15:24;12.30;99.90
38090;DHT22;23904;52.322;10.232;2023-03-30T06:17:50;12.40;99.90
38090;DHT22;23904;52.322;10.232;2023-03-30T06:20:17;12.40;99.90
38090;DHT22;23904;52.322;10.232;2023-03-30T06:22:46;12.40;99.90
38090;DHT22;23904;52.322;10.232;2023-03-30T06:25:12;12.50;99.90
38090;DHT22;23904;52.322;10.232;2023-03-30T06:27:38;12.50;99.90
38090;DHT22;23904;52.322;10.232;2023-03-30T06:30:05;12.60;99.90
38090;DHT22;23904;52.322;10.232;2023-03-30T06:32:33;12.70;99.90
38090;DHT22;23904;52.322;10.232;2023-03-30T06:35:00;12.70;99.90
38090;DHT22;23904;52.322;10.232;2023-03-30T06:37:25;12.80;99.90
38090;DHT22;23904;52.322;10.232;2023-03-30T06:39:51;12.80;99.90
38090;DHT22;23904;52.322;10.232;2023-03-30T06:42:16;12.90;99.90
38090;DHT22;23904;52.322;10.232;2023-03-30T06:44:42;12.90;99.90
38090;DHT22;23904;52.322;10.232;2023-03-30T06:47:08;13.00;99.90
38090;DHT22;23904;52.322;10.232;2023-03-30T06:49:33;13.10;99.90
38090;DHT22;23904;52.322;10.232;2023-03-30T06:51:59;13.20;99.90
38090;DHT22;23904;52.322;10.232;2023-03-30T06:54:25;13.10;99.90
38090;DHT22;23904;52.322;10.232;2023-03-30T06:56:51;13.20;99.90
38090;DHT22;23904;52.322;10.232;2023-03-30T06:59:17;13.20;99.90
38090;DHT22;23904;52.322;10.232;2023-03-30T07:01:43;13.30;99.90
38090;DHT22;23904;52.322;10.232;2023-03-30T07:04:08;13.50;99.90
38090;DHT22;23904;52.322;10.232;2023-03-30T07:06:34;13.50;99.90
38090;DHT22;23904;52.322;10.232;2023-03-30T07:09:00;13.60;99.90
38090;DHT22;23904;52.322;10.232;2023-03-30T07:11:26;13.60;99.90
38090;DHT22;23904;52.322;10.232;2023-03-30T07:13:52;13.70;99.90
38090;DHT22;23904;52.322;10.232;2023-03-30T07:16:20;13.80;99.90
38090;DHT22;23904;52.322;10.232;2023-03-30T07:18:46;13.90;99.90
38090;DHT22;23904;52.322;10.232;2023-03-30T07:21:12;13.90;99.90
38090;DHT22;23904;52.322;10.232;2023-03-30T07:23:38;13.90;99.90
38090;DHT22;23904;52.322;10.232;2023-03-30T07:26:04;14.00;99.90
38090;DHT22;23904;52.322;10.232;2023-03-30T07:28:30;13.80;99.90
38090;DHT22;23904;52.322;10.232;2023-03-30T07:31:05;13.90;99.90
38090;DHT22;23904;52.322;10.232;2023-03-30T07:33:32;14.00;99.90
38090;DHT22;23904;52.322;10.232;2023-03-30T07:35:57;14.10;99.90
38090;DHT22;23904;52.322;10.232;2023-03-30T07:38:23;14.20;99.90
38090;DHT22;23904;52.322;10.232;2023-03-30T07:40:49;14.20;99.90
38090;DHT22;23904;52.322;10.232;2023-03-30T07:43:15;14.30;99.90
38090;DHT22;23904;52.322;10.232;2023-03-30T07:45:40;14.30;99.90
38090;DHT22;23904;52.322;10.232;2023-03-30T07:48:06;14.20;99.90
38090;DHT22;23904;52.322;10.232;2023-03-30T07:50:31;14.20;99.90
38090;DHT22;23904;52.322;10.232;2023-03-30T07:52:57;14.20;99.90
38090;DHT22;23904;52.322;10.232;2023-03-30T07:55:23;14.10;99.90
38090;DHT22;23904;52.322;10.232;2023-03-30T07:57:48;14.20;99.90
38090;DHT22;23904;52.322;10.232;2023-03-30T08:00:14;14.20;99.90
38090;DHT22;23904;52.322;10.232;2023-03-30T08:02:40;14.30;99.90
38090;DHT22;23904;52.322;10.232;2023-03-30T08:05:07;14.20;99.90
38090;DHT22;23904;52.322;10.232;2023-03-30T08:07:33;14.20;99.90
38090;DHT22;23904;52.322;10.232;2023-03-30T08:09:59;14.40;99.90
38090;DHT22;23904;52.322;10.232;2023-03-30T08:12:25;14.40;99.90
38090;DHT22;23904;52.322;10.232;2023-03-30T08:14:51;14.60;99.90
38090;DHT22;23904;52.322;10.232;2023-03-30T08:17:17;14.60;99.90
38090;DHT22;23904;52.322;10.232;2023-03-30T08:19:43;14.60;99.90
38090;DHT22;23904;52.322;10.232;2023-03-30T08:22:09;14.70;99.90
38090;DHT22;23904;52.322;10.232;2023-03-30T08:24:35;14.80;99.90
38090;DHT22;23904;52.322;10.232;2023-03-30T08:27:00;14.90;99.90
38090;DHT22;23904;52.322;10.232;2023-03-30T08:29:26;15.00;99.90
38090;DHT22;23904;52.322;10.232;2023-03-30T08:31:51;14.90;99.90
38090;DHT22;23904;52.322;10.232;2023-03-30T08:37:59;15.00;99.90
38090;DHT22;23904;52.322;10.232;2023-03-30T08:40:24;15.00;99.90
38090;DHT22;23904;52.322;10.232;2023-03-30T08:45:45;15.20;99.90
38090;DHT22;23904;52.322;10.232;2023-03-30T08:48:20;15.50;99.90
38090;DHT22;23904;52.322;10.232;2023-03-30T08:51:07;15.60;99.90
38090;DHT22;23904;52.322;10.232;2023-03-30T08:53:39;16.00;99.90
38090;DHT22;23904;52.322;10.232;2023-03-30T08:56:19;16.70;99.90
38090;DHT22;23904;52.322;10.232;2023-03-30T08:59:15;17.00;99.90
38090;DHT22;23904;52.322;10.232;2023-03-30T09:01:57;17.10;99.90
38090;DHT22;23904;52.322;10.232;2023-03-30T09:04:52;16.80;99.90
38090;DHT22;23904;52.322;10.232;2023-03-30T09:07:58;17.20;99.90
38090;DHT22;23904;52.322;10.232;2023-03-30T09:10:38;18.00;99.90
38090;DHT22;23904;52.322;10.232;2023-03-30T09:13:08;18.60;99.90
38090;DHT22;23904;52.322;10.232;2023-03-30T09:15:53;18.60;99.90
38090;DHT22;23904;52.322;10.232;2023-03-30T09:18:26;18.20;99.90
38090;DHT22;23904;52.322;10.232;2023-03-30T09:20:57;17.60;99.90
38090;DHT22;23904;52.322;10.232;2023-03-30T09:23:26;17.40;99.90
38090;DHT22;23904;52.322;10.232;2023-03-30T09:29:20;16.70;99.90
38090;DHT22;23904;52.322;10.232;2023-03-30T09:31:57;16.60;99.90
38090;DHT22;23904;52.322;10.232;2023-03-30T09:34:49;16.70;99.90
38090;DHT22;23904;52.322;10.232;2023-03-30T09:37:23;16.60;99.90
38090;DHT22;23904;52.322;10.232;2023-03-30T09:39:49;16.60;99.90
38090;DHT22;23904;52.322;10.232;2023-03-30T09:45:29;16.90;99.90
38090;DHT22;23904;52.322;10.232;2023-03-30T09:48:05;16.80;99.90
38090;DHT22;23904;52.322;10.232;2023-03-30T09:50:37;16.50;99.90
38090;DHT22;23904;52.322;10.232;2023-03-30T09:53:16;16.30;99.90
38090;DHT22;23904;52.322;10.232;2023-03-30T09:55:59;16.00;99.90
38090;DHT22;23904;52.322;10.232;2023-03-30T09:58:35;15.70;99.90
38090;DHT22;23904;52.322;10.232;2023-03-30T10:01:07;15.60;99.90
38090;DHT22;23904;52.322;10.232;2023-03-30T10:03:37;15.70;99.90
38090;DHT22;23904;52.322;10.232;2023-03-30T10:08:46;15.60;99.90
38090;DHT22;23904;52.322;10.232;2023-03-30T10:11:29;15.60;99.90
38090;DHT22;23904;52.322;10.232;2023-03-30T10:14:00;15.60;99.90
38090;DHT22;23904;52.322;10.232;2023-03-30T10:16:30;15.60;99.90
38090;DHT22;23904;52.322;10.232;2023-03-30T10:19:00;15.60;99.90
38090;DHT22;23904;52.322;10.232;2023-03-30T10:21:38;15.50;99.90
38090;DHT22;23904;52.322;10.232;2023-03-30T10:24:09;15.50;99.90
38090;DHT22;23904;52.322;10.232;2023-03-30T10:26:47;15.40;99.90
38090;DHT22;23904;52.322;10.232;2023-03-30T10:29:20;15.20;99.90
38090;DHT22;23904;52.322;10.232;2023-03-30T10:31:55;15.20;99.90
38090;DHT22;23904;52.322;10.232;2023-03-30T10:34:36;15.20;99.90
38090;DHT22;23904;52.322;10.232;2023-03-30T10:37:11;15.40;99.90
38090;DHT22;23904;52.322;10.232;2023-03-30T10:39:41;15.50;99.90
38090;DHT22;23904;52.322;10.232;2023-03-30T10:42:13;15.30;99.90
38090;DHT22;23904;52.322;10.232;2023-03-30T10:44:50;15.20;99.90
38090;DHT22;23904;52.322;10.232;2023-03-30T10:47:48;15.30;99.90
38090;DHT22;23904;52.322;10.232;2023-03-30T10:50:38;15.30;99.90
38090;DHT22;23904;52.322;10.232;2023-03-30T10:53:22;15.20;99.90
38090;DHT22;23904;52.322;10.232;2023-03-30T10:55:58;15.10;99.90
38090;DHT22;23904;52.322;10.232;2023-03-30T11:01:46;14.60;99.90
38090;DHT22;23904;52.322;10.232;2023-03-30T11:04:41;14.00;99.90
38090;DHT22;23904;52.322;10.232;2023-03-30T11:07:19;13.80;99.90
38090;DHT22;23904;52.322;10.232;2023-03-30T11:10:12;13.60;99.90
38090;DHT22;23904;52.322;10.232;2023-03-30T11:12:44;13.40;99.90
38090;DHT22;23904;52.322;10.232;2023-03-30T11:15:18;13.40;99.90
38090;DHT22;23904;52.322;10.232;2023-03-30T11:20:36;13.10;99.90
38090;DHT22;23904;52.322;10.232;2023-03-30T11:23:35;13.00;99.90
38090;DHT22;23904;52.322;10.232;2023-03-30T11:26:06;12.80;99.90
38090;DHT22;23904;52.322;10.232;2023-03-30T11:28:58;12.60;99.90
38090;DHT22;23904;52.322;10.232;2023-03-30T11:31:58;12.40;99.90
38090;DHT22;23904;52.322;10.232;2023-03-30T11:34:35;12.40;99.90
38090;DHT22;23904;52.322;10.232;2023-03-30T11:37:41;12.40;99.90
38090;DHT22;23904;52.322;10.232;2023-03-30T11:40:17;12.80;99.90
38090;DHT22;23904;52.322;10.232;2023-03-30T11:42:45;13.50;99.90
38090;DHT22;23904;52.322;10.232;2023-03-30T11:51:26;16.50;99.90
38090;DHT22;23904;52.322;10.232;2023-03-30T11:54:25;16.10;99.90
38090;DHT22;23904;52.322;10.232;2023-03-30T12:03:41;14.80;99.90
38090;DHT22;23904;52.322;10.232;2023-03-30T12:09:19;17.80;99.90
38090;DHT22;23904;52.322;10.232;2023-03-30T12:12:04;19.90;99.90
38090;DHT22;23904;52.322;10.232;2023-03-30T12:14:57;20.10;99.90
38090;DHT22;23904;52.322;10.232;2023-03-30T12:20:43;17.60;99.90
38090;DHT22;23904;52.322;10.232;2023-03-30T12:23:48;17.70;99.90
38090;DHT22;23904;52.322;10.232;2023-03-30T12:26:28;18.10;99.90
38090;DHT22;23904;52.322;10.232;2023-03-30T12:29:00;18.20;99.90
38090;DHT22;23904;52.322;10.232;2023-03-30T12:34:25;17.50;99.90
38090;DHT22;23904;52.322;10.232;2023-03-30T12:39:29;17.30;99.90
38090;DHT22;23904;52.322;10.232;2023-03-30T12:42:14;17.50;99.90
38090;DHT22;23904;52.322;10.232;2023-03-30T12:48:14;16.90;99.90
38090;DHT22;23904;52.322;10.232;2023-03-30T12:57:01;16.00;99.90
38090;DHT22;23904;52.322;10.232;2023-03-30T13:00:10;15.70;99.90
38090;DHT22;23904;52.322;10.232;2023-03-30T13:02:59;15.60;99.90
38090;DHT22;23904;52.322;10.232;2023-03-30T13:05:32;15.30;99.90
38090;DHT22;23904;52.322;10.232;2023-03-30T13:08:08;15.10;99.90
38090;DHT22;23904;52.322;10.232;2023-03-30T13:10:42;15.10;99.90
38090;DHT22;23904;52.322;10.232;2023-03-30T13:13:43;15.00;99.90
38090;DHT22;23904;52.322;10.232;2023-03-30T13:29:39;14.90;99.90
38090;DHT22;23904;52.322;10.232;2023-03-30T13:32:16;14.90;99.90
38090;DHT22;23904;52.322;10.232;2023-03-30T13:37:44;15.70;99.90
38090;DHT22;23904;52.322;10.232;2023-03-30T13:40:42;15.90;99.90
38090;DHT22;23904;52.322;10.232;2023-03-30T13:46:50;15.60;99.90
38090;DHT22;23904;52.322;10.232;2023-03-30T13:51:43;15.00;99.90
38090;DHT22;23904;52.322;10.232;2023-03-30T13:54:39;14.80;99.90
38090;DHT22;23904;52.322;10.232;2023-03-30T13:57:09;14.60;99.90
38090;DHT22;23904;52.322;10.232;2023-03-30T13:59:41;14.50;99.90
38090;DHT22;23904;52.322;10.232;2023-03-30T14:02:16;14.50;99.90
38090;DHT22;23904;52.322;10.232;2023-03-30T14:04:42;14.50;99.90
38090;DHT22;23904;52.322;10.232;2023-03-30T14:07:19;14.50;99.90
38090;DHT22;23904;52.322;10.232;2023-03-30T14:10:25;14.80;99.90
38090;DHT22;23904;52.322;10.232;2023-03-30T14:12:53;15.30;99.90
38090;DHT22;23904;52.322;10.232;2023-03-30T14:15:33;15.60;99.90
38090;DHT22;23904;52.322;10.232;2023-03-30T14:18:01;15.90;99.90
38090;DHT22;23904;52.322;10.232;2023-03-30T14:20:43;16.00;99.90
38090;DHT22;23904;52.322;10.232;2023-03-30T14:23:19;15.70;99.90
38090;DHT22;23904;52.322;10.232;2023-03-30T14:25:53;15.70;99.90
38090;DHT22;23904;52.322;10.232;2023-03-30T14:28:25;15.80;99.90
38090;DHT22;23904;52.322;10.232;2023-03-30T14:31:00;15.70;99.90
38090;DHT22;23904;52.322;10.232;2023-03-30T14:33:29;15.50;99.90
38090;DHT22;23904;52.322;10.232;2023-03-30T14:35:58;15.50;99.90
38090;DHT22;23904;52.322;10.232;2023-03-30T14:38:28;15.20;99.90
38090;DHT22;23904;52.322;10.232;2023-03-30T14:40:59;15.10;99.90
38090;DHT22;23904;52.322;10.232;2023-03-30T14:43:28;15.00;99.90
38090;DHT22;23904;52.322;10.232;2023-03-30T14:45:57;14.80;99.90
38090;DHT22;23904;52.322;10.232;2023-03-30T14:48:35;14.80;99.90
38090;DHT22;23904;52.322;10.232;2023-03-30T14:51:05;14.90;99.90
38090;DHT22;23904;52.322;10.232;2023-03-30T14:53:34;15.10;99.90
38090;DHT22;23904;52.322;10.232;2023-03-30T14:56:01;15.40;99.90
38090;DHT22;23904;52.322;10.232;2023-03-30T14:58:30;15.60;99.90
38090;DHT22;23904;52.322;10.232;2023-03-30T15:00:58;15.90;99.90
38090;DHT22;23904;52.322;10.232;2023-03-30T15:03:31;15.90;99.90
38090;DHT22;23904;52.322;10.232;2023-03-30T15:06:02;16.00;99.90
38090;DHT22;23904;52.322;10.232;2023-03-30T15:08:32;16.20;99.90
38090;DHT22;23904;52.322;10.232;2023-03-30T15:11:07;16.20;99.90
38090;DHT22;23904;52.322;10.232;2023-03-30T15:13:43;16.00;99.90
38090;DHT22;23904;52.322;10.232;2023-03-30T15:16:15;15.90;99.90
38090;DHT22;23904;52.322;10.232;2023-03-30T15:18:43;15.80;99.90
38090;DHT22;23904;52.322;10.232;2023-03-30T15:21:11;15.60;99.90
38090;DHT22;23904;52.322;10.232;2023-03-30T15:23:42;15.50;99.90
38090;DHT22;23904;52.322;10.232;2023-03-30T15:26:10;15.40;99.90
38090;DHT22;23904;52.322;10.232;2023-03-30T15:28:50;15.30;99.90
38090;DHT22;23904;52.322;10.232;2023-03-30T15:31:18;15.50;99.90
38090;DHT22;23904;52.322;10.232;2023-03-30T15:33:50;15.50;99.90
38090;DHT22;23904;52.322;10.232;2023-03-30T15:36:20;15.40;99.90
38090;DHT22;23904;52.322;10.232;2023-03-30T15:38:51;15.30;99.90
38090;DHT22;23904;52.322;10.232;2023-03-30T15:41:41;15.00;99.90
38090;DHT22;23904;52.322;10.232;2023-03-30T15:44:35;14.80;99.90
38090;DHT22;23904;52.322;10.232;2023-03-30T15:47:02;14.70;99.90
38090;DHT22;23904;52.322;10.232;2023-03-30T15:49:43;14.60;99.90
38090;DHT22;23904;52.322;10.232;2023-03-30T15:52:17;14.50;99.90
38090;DHT22;23904;52.322;10.232;2023-03-30T15:57:41;13.40;99.90
38090;DHT22;23904;52.322;10.232;2023-03-30T16:00:16;13.00;99.90
38090;DHT22;23904;52.322;10.232;2023-03-30T16:02:52;12.80;99.90
38090;DHT22;23904;52.322;10.232;2023-03-30T16:05:23;12.80;99.90
38090;DHT22;23904;52.322;10.232;2023-03-30T16:07:57;12.90;99.90
38090;DHT22;23904;52.322;10.232;2023-03-30T16:10:25;12.70;99.90
38090;DHT22;23904;52.322;10.232;2023-03-30T16:12:53;12.70;99.90
38090;DHT22;23904;52.322;10.232;2023-03-30T16:15:23;12.70;99.90
38090;DHT22;23904;52.322;10.232;2023-03-30T16:17:50;12.60;99.90
38090;DHT22;23904;52.322;10.232;2023-03-30T16:20:24;12.60;99.90
38090;DHT22;23904;52.322;10.232;2023-03-30T16:22:51;12.50;99.90
38090;DHT22;23904;52.322;10.232;2023-03-30T16:25:20;12.40;99.90
38090;DHT22;23904;52.322;10.232;2023-03-30T16:27:47;12.30;99.90
38090;DHT22;23904;52.322;10.232;2023-03-30T16:30:36;12.20;99.90
38090;DHT22;23904;52.322;10.232;2023-03-30T16:33:03;12.20;99.90
38090;DHT22;23904;52.322;10.232;2023-03-30T16:35:29;12.30;99.90
38090;DHT22;23904;52.322;10.232;2023-03-30T16:37:55;12.30;99.90
38090;DHT22;23904;52.322;10.232;2023-03-30T16:40:34;12.40;99.90
38090;DHT22;23904;52.322;10.232;2023-03-30T16:43:01;12.50;99.90
38090;DHT22;23904;52.322;10.232;2023-03-30T16:45:27;12.70;99.90
38090;DHT22;23904;52.322;10.232;2023-03-30T16:47:53;12.80;99.90
38090;DHT22;23904;52.322;10.232;2023-03-30T16:50:23;12.80;99.90
38090;DHT22;23904;52.322;10.232;2023-03-30T16:52:51;12.70;99.90
38090;DHT22;23904;52.322;10.232;2023-03-30T16:55:17;12.60;99.90
38090;DHT22;23904;52.322;10.232;2023-03-30T16:57:43;12.40;99.90
38090;DHT22;23904;52.322;10.232;2023-03-30T17:00:31;12.30;99.90
38090;DHT22;23904;52.322;10.232;2023-03-30T17:02:57;12.20;99.90
38090;DHT22;23904;52.322;10.232;2023-03-30T17:05:23;12.20;99.90
38090;DHT22;23904;52.322;10.232;2023-03-30T17:07:52;12.20;99.90
38090;DHT22;23904;52.322;10.232;2023-03-30T17:10:24;12.20;99.90
38090;DHT22;23904;52.322;10.232;2023-03-30T17:12:53;12.20;99.90
38090;DHT22;23904;52.322;10.232;2023-03-30T17:15:20;12.20;99.90
38090;DHT22;23904;52.322;10.232;2023-03-30T17:17:46;12.10;99.90
38090;DHT22;23904;52.322;10.232;2023-03-30T17:20:22;12.00;99.90
38090;DHT22;23904;52.322;10.232;2023-03-30T17:22:57;12.00;99.90
38090;DHT22;23904;52.322;10.232;2023-03-30T17:25:22;11.90;99.90
38090;DHT22;23904;52.322;10.232;2023-03-30T17:27:51;12.00;99.90
38090;DHT22;23904;52.322;10.232;2023-03-30T17:30:23;12.00;99.90
38090;DHT22;23904;52.322;10.232;2023-03-30T17:32:50;12.00;99.90
38090;DHT22;23904;52.322;10.232;2023-03-30T17:35:16;12.00;99.90
38090;DHT22;23904;52.322;10.232;2023-03-30T17:37:42;11.90;99.90
38090;DHT22;23904;52.322;10.232;2023-03-30T17:42:43;11.90;99.90
38090;DHT22;23904;52.322;10.232;2023-03-30T17:45:10;12.00;99.90
38090;DHT22;23904;52.322;10.232;2023-03-30T17:47:36;12.00;99.90